Locust Grove, Pennsylvania
Current Conditions -  °F | °C
As of 12:53 PM on Monday 24 Nov 2014 (Local Time) from KTHV Reporting Station
Few Clouds Few Clouds  
Wind Chill: 68°   Ceiling: Unl
Heat Index: 68°   Visibility: 10mi
Dew Point: 54°   Wind: 16mph
Humidity: 61%   Direction: 200°SSW
Pressure: 29.56"   Gusts: 29mph
Location:  39.9768°N, 76.6853°W
Report Text: KTHV 241753Z AUTO 20014G25KT 10SM FEW033 20/12 A2956 RMK AO2 PK WND 21028/1712 SLP009 T02000122 10206 20172 58023
Loading
Personal Weather Stations






























Interactive Weather Map New forecast layout! Learn more

10-Day Weather Forecast

Advertisements
Track Severe Weather on mobile